Time;durP1;ratioP1;P1;durP2;ratioP2;P2;SDS_P1;SDS_P2;PMS_P1;PMS_P2;Temp;Humidity;BMP_temperature;BMP_pressure;BME280_temperature;BME280_humidity;BME280_pressure;Samples;Min_cycle;Max_cycle;Signal;HPM_P1;HPM_P2
2024/02/12 00:02:18;;;;;;;11.50;2.90;;;;;;;15.09;86.64;99441.16;4990612;28;20084;-66
2024/02/12 00:04:48;;;;;;;13.13;3.05;;;;;;;14.95;86.85;99430.72;4990127;28;20030;-68
2024/02/12 00:07:16;;;;;;;9.88;2.72;;;;;;;15.02;86.25;99429.88;4990373;28;20054;-68
2024/02/12 00:09:43;;;;;;;11.43;2.67;;;;;;;14.98;86.61;99407.34;4990162;28;20035;-68
2024/02/12 00:12:08;;;;;;;14.38;3.70;;;;;;;14.57;86.46;99348.31;4990122;28;20485;-68
2024/02/12 00:14:34;;;;;;;18.52;4.10;;;;;;;14.98;86.91;99412.53;4989943;28;20026;-67
2024/02/12 00:17:04;;;;;;;11.15;2.90;;;;;;;14.96;87.19;99421.19;4989154;28;20034;-67
2024/02/12 00:19:34;;;;;;;13.93;3.00;;;;;;;14.92;87.13;99412.53;4989551;28;20069;-66
2024/02/12 00:22:00;;;;;;;12.23;3.22;;;;;;;14.94;86.68;99425.50;4986245;28;20085;-68
2024/02/12 00:24:28;;;;;;;10.15;2.63;;;;;;;14.55;86.06;99361.31;4989974;28;20117;-68
2024/02/12 00:26:59;;;;;;;11.90;3.17;;;;;;;15.00;86.32;99418.63;4977156;28;20042;-68
2024/02/12 00:29:26;;;;;;;13.27;3.08;;;;;;;15.03;86.51;99430.75;4988981;28;20034;-66
2024/02/12 00:31:53;;;;;;;16.08;2.95;;;;;;;14.96;87.07;99427.25;4990052;28;20049;-68
2024/02/12 00:34:20;;;;;;;19.15;2.92;;;;;;;14.98;87.42;99425.53;4989867;28;20022;-69
2024/02/12 00:36:46;;;;;;;11.27;2.67;;;;;;;14.88;87.13;99423.78;4945932;28;20038;-72
2024/02/12 00:39:12;;;;;;;10.85;2.92;;;;;;;14.99;87.51;99426.38;4989412;28;20371;-69
2024/02/12 00:41:39;;;;;;;8.38;2.38;;;;;;;14.86;88.10;99400.38;4989905;28;20398;-69
2024/02/12 00:44:05;;;;;;;14.20;3.28;;;;;;;15.00;88.09;99412.53;4989398;28;20049;-71
2024/02/12 00:46:30;;;;;;;10.88;2.40;;;;;;;14.96;88.47;99421.19;4990751;28;20478;-70
2024/02/12 00:48:57;;;;;;;9.68;2.40;;;;;;;14.96;89.21;99429.84;4987301;28;20041;-68
2024/02/12 00:51:23;;;;;;;11.73;2.47;;;;;;;14.92;89.64;99435.91;4989744;28;20031;-70
2024/02/12 00:53:48;;;;;;;8.57;2.33;;;;;;;14.93;89.00;99440.25;4989459;28;20041;-70
2024/02/12 00:56:15;;;;;;;8.82;2.55;;;;;;;14.54;88.93;99350.91;4989371;28;20034;-68
2024/02/12 00:58:42;;;;;;;9.63;2.83;;;;;;;14.86;89.76;99421.16;4989164;28;20521;-68
2024/02/12 01:01:10;;;;;;;9.38;2.38;;;;;;;14.51;89.43;99371.69;4983246;28;20405;-72
2024/02/12 01:03:36;;;;;;;13.52;3.28;;;;;;;14.88;90.14;99426.38;4989008;28;20049;-68
2024/02/12 01:06:02;;;;;;;14.52;3.20;;;;;;;14.84;90.54;99437.63;4979341;28;20112;-68
2024/02/12 01:08:27;;;;;;;15.45;2.88;;;;;;;14.33;89.86;99339.59;5011077;28;20129;-68
2024/02/12 01:10:53;;;;;;;13.15;2.35;;;;;;;14.81;90.47;99425.47;4989096;28;20117;-69
2024/02/12 01:13:19;;;;;;;11.68;3.25;;;;;;;14.70;89.73;99403.81;4989712;28;20421;-69
2024/02/12 01:15:49;;;;;;;9.82;2.50;;;;;;;14.80;89.40;99409.91;5011122;28;20109;-70
2024/02/12 01:18:17;;;;;;;9.35;2.42;;;;;;;14.81;89.31;99422.88;4989770;28;20031;-69
2024/02/12 01:20:45;;;;;;;10.57;2.58;;;;;;;14.81;88.06;99422.88;4989097;28;20069;-67
2024/02/12 01:23:12;;;;;;;13.32;2.97;;;;;;;14.83;88.63;99412.50;4989444;28;20127;-68
2024/02/12 01:25:38;;;;;;;10.00;2.38;;;;;;;14.79;89.05;99409.03;4989170;28;20513;-68
2024/02/12 01:28:06;;;;;;;11.32;2.30;;;;;;;14.77;89.00;99402.09;5012558;28;20030;-68
2024/02/12 01:30:34;;;;;;;10.70;2.28;;;;;;;14.75;89.22;99403.81;4992973;28;20034;-68
2024/02/12 01:33:02;;;;;;;7.65;2.17;;;;;;;14.77;89.13;99389.13;4992598;28;20034;-68
2024/02/12 01:35:27;;;;;;;14.25;2.63;;;;;;;14.46;89.46;99334.44;4981989;28;20030;-70
2024/02/12 01:37:53;;;;;;;10.95;2.33;;;;;;;14.79;89.11;99387.38;4992448;28;20031;-69
2024/02/12 01:40:19;;;;;;;15.75;3.13;;;;;;;14.75;88.27;99381.28;4991048;28;20034;-68
2024/02/12 01:42:44;;;;;;;6.25;1.85;;;;;;;14.77;88.83;99383.91;4988316;28;20034;-69
2024/02/12 01:45:13;;;;;;;12.45;3.05;;;;;;;14.82;88.07;99393.44;4993186;28;20018;-69
2024/02/12 01:47:41;;;;;;;14.20;2.08;;;;;;;14.85;87.84;99389.97;4992529;28;20124;-70
2024/02/12 01:50:15;;;;;;;10.23;2.40;;;;;;;14.79;87.48;99369.19;4992828;28;20045;-69
2024/02/12 01:52:41;;;;;;;17.88;2.45;;;;;;;14.86;87.46;99379.59;4992247;28;20118;-70
2024/02/12 01:55:08;;;;;;;7.30;1.67;;;;;;;14.77;86.87;99360.53;4992952;28;20031;-68
2024/02/12 01:57:34;;;;;;;12.23;2.75;;;;;;;14.84;87.35;99385.63;4993039;28;20031;-68
2024/02/12 02:00:00;;;;;;;13.18;2.47;;;;;;;14.86;87.31;99383.94;4992631;28;20030;-71
2024/02/12 02:02:26;;;;;;;15.63;3.25;;;;;;;14.85;87.91;99369.19;4992359;28;20447;-68
2024/02/12 02:04:53;;;;;;;14.48;3.05;;;;;;;14.82;88.04;99366.59;4992206;28;20089;-68
2024/02/12 02:07:19;;;;;;;19.05;3.08;;;;;;;14.77;89.16;99371.78;4991916;28;20426;-72
2024/02/12 02:09:50;;;;;;;8.68;2.85;;;;;;;14.76;89.41;99369.19;4992551;28;20097;-68
2024/02/12 02:12:16;;;;;;;10.75;3.33;;;;;;;14.76;89.76;99366.59;4982982;28;20050;-70
2024/02/12 02:14:43;;;;;;;20.77;3.28;;;;;;;14.74;90.23;99355.31;4992484;28;20117;-68
2024/02/12 02:17:10;;;;;;;17.75;3.08;;;;;;;14.69;90.56;99345.78;4992810;28;20042;-67
2024/02/12 02:19:38;;;;;;;21.50;3.97;;;;;;;14.71;90.77;99346.66;4992149;28;20050;-69
2024/02/12 02:22:04;;;;;;;21.55;4.32;;;;;;;14.70;91.25;99336.25;4990516;28;20031;-69
2024/02/12 02:24:30;;;;;;;20.48;4.13;;;;;;;14.54;91.56;99319.75;4991138;28;20080;-68
2024/02/12 02:26:55;;;;;;;11.30;2.42;;;;;;;14.62;91.47;99340.56;4991434;28;20161;-68
2024/02/12 02:29:21;;;;;;;16.20;3.00;;;;;;;14.60;91.48;99334.47;4990445;28;20121;-69
2024/02/12 02:31:47;;;;;;;13.35;3.58;;;;;;;14.56;92.20;99342.25;4991543;28;20462;-68
2024/02/12 02:34:13;;;;;;;17.83;3.78;;;;;;;14.43;93.33;99326.63;4991977;28;20092;-69
2024/02/12 02:36:46;;;;;;;9.80;2.15;;;;;;;14.39;96.21;99343.94;4991784;28;20509;-67
2024/02/12 02:39:12;;;;;;;8.45;1.95;;;;;;;14.35;99.22;99335.25;4989194;28;20406;-69
2024/02/12 02:41:45;;;;;;;11.48;2.53;;;;;;;14.04;100.00;99292.75;4991934;28;20045;-68
2024/02/12 02:44:13;;;;;;;9.70;2.00;;;;;;;14.11;100.00;99322.22;4992244;28;20046;-67
2024/02/12 02:46:38;;;;;;;8.02;2.10;;;;;;;14.14;100.00;99333.44;4991348;28;20048;-69
2024/02/12 02:49:04;;;;;;;12.57;2.45;;;;;;;14.02;100.00;99323.91;4991378;28;20144;-69
2024/02/12 02:51:30;;;;;;;12.90;3.28;;;;;;;13.99;100.00;99320.44;4991093;28;20425;-68
2024/02/12 02:53:56;;;;;;;10.18;1.98;;;;;;;13.99;100.00;99328.22;4991247;28;20042;-68
2024/02/12 02:56:22;;;;;;;13.73;3.05;;;;;;;13.94;100.00;99314.34;4990849;28;20137;-67
2024/02/12 02:58:49;;;;;;;13.45;2.25;;;;;;;13.85;100.00;99308.25;4991261;28;20033;-69
2024/02/12 03:01:19;;;;;;;9.55;3.08;;;;;;;13.79;100.00;99313.41;4991488;28;20393;-69
2024/02/12 03:03:50;;;;;;;9.45;2.45;;;;;;;13.72;100.00;99302.16;4989790;28;20465;-69
2024/02/12 03:06:19;;;;;;;10.52;2.40;;;;;;;13.68;100.00;99289.13;4991344;28;20133;-68
2024/02/12 03:08:45;;;;;;;8.75;2.78;;;;;;;13.68;100.00;99289.13;4991627;28;20040;-68
2024/02/12 03:11:22;;;;;;;14.07;2.40;;;;;;;13.67;100.00;99288.28;4991408;28;20030;-68
2024/02/12 03:13:50;;;;;;;12.45;3.15;;;;;;;13.64;100.00;99284.81;4988413;28;20073;-69
2024/02/12 03:16:16;;;;;;;14.02;2.55;;;;;;;13.59;100.00;99288.25;4991087;28;20038;-69
2024/02/12 03:18:45;;;;;;;8.73;2.75;;;;;;;13.48;100.00;99270.88;4991258;28;20041;-69
2024/02/12 03:21:11;;;;;;;9.93;3.42;;;;;;;13.51;100.00;99282.16;4991276;28;20053;-67
2024/02/12 03:23:37;;;;;;;12.63;2.53;;;;;;;13.50;100.00;99295.09;4991158;28;20037;-69
2024/02/12 03:26:06;;;;;;;12.35;3.50;;;;;;;13.43;100.00;99276.03;4991084;28;20121;-68
2024/02/12 03:28:32;;;;;;;8.32;1.75;;;;;;;13.41;100.00;99276.03;4990715;28;20406;-69
2024/02/12 03:30:57;;;;;;;9.00;2.15;;;;;;;13.50;100.00;99284.72;4991048;28;20037;-68
2024/02/12 03:33:23;;;;;;;7.93;2.08;;;;;;;13.06;100.00;99221.34;4990937;28;20034;-69
2024/02/12 03:35:48;;;;;;;6.68;1.80;;;;;;;13.46;100.00;99303.69;4991587;28;20409;-68
2024/02/12 03:38:14;;;;;;;8.15;2.17;;;;;;;13.38;100.00;99285.50;4990742;28;20105;-69
2024/02/12 03:40:40;;;;;;;6.30;1.63;;;;;;;13.36;100.00;99290.66;4990756;28;20030;-68
2024/02/12 03:43:25;;;;;;;12.27;2.75;;;;;;;13.23;100.00;99265.50;4978064;28;20086;-72
2024/02/12 03:45:52;;;;;;;9.80;2.67;;;;;;;13.24;100.00;99283.66;4959107;28;20158;-68
2024/02/12 04:01:59;;;;;;;8.15;2.10;;;;;;;13.25;100.00;99276.75;4977069;28;20089;-71
2024/02/12 04:04:30;;;;;;;10.55;1.90;;;;;;;13.28;100.00;99300.09;4979889;28;20084;-68
2024/02/12 04:07:13;;;;;;;9.75;1.88;;;;;;;12.51;100.00;99152.78;4928065;29;20139;-69
2024/02/12 04:09:41;;;;;;;11.40;2.22;;;;;;;13.20;100.00;99279.31;4919349;29;20500;-68
2024/02/12 04:12:12;;;;;;;10.30;2.10;;;;;;;13.19;100.00;99271.53;4917955;29;20423;-69
2024/02/12 04:14:42;;;;;;;11.27;2.50;;;;;;;13.10;100.00;99260.25;4866232;29;20185;-69
2024/02/12 04:17:13;;;;;;;14.63;2.75;;;;;;;13.09;100.00;99287.00;4883757;29;20052;-69
2024/02/12 04:19:40;;;;;;;4.82;1.75;;;;;;;12.94;100.00;99281.72;4884651;29;20437;-68
2024/02/12 04:22:09;;;;;;;7.63;1.98;;;;;;;12.86;100.00;99294.59;4879347;29;20136;-68
2024/02/12 04:24:42;;;;;;;9.43;3.55;;;;;;;12.74;100.00;99302.25;4881254;29;20089;-69
2024/02/12 04:27:10;;;;;;;14.10;2.92;;;;;;;12.66;100.00;99286.66;4874544;29;20037;-69
2024/02/12 04:29:46;;;;;;;14.40;2.47;;;;;;;12.66;100.00;99293.53;4882906;29;20079;-68
2024/02/12 04:32:15;;;;;;;8.57;2.00;;;;;;;12.60;100.00;99289.19;4882605;29;20045;-66
2024/02/12 04:34:41;;;;;;;14.10;3.45;;;;;;;12.54;100.00;99292.56;4882235;29;20547;-68
2024/02/12 04:37:09;;;;;;;18.38;3.05;;;;;;;12.26;100.00;99252.59;4887200;29;20033;-69
2024/02/12 04:39:38;;;;;;;15.02;3.38;;;;;;;12.01;100.00;99204.91;4938802;29;20113;-68
2024/02/12 04:42:04;;;;;;;8.57;2.17;;;;;;;11.92;100.00;99197.88;4940224;29;20038;-68
2024/02/12 04:44:30;;;;;;;9.38;2.30;;;;;;;12.19;100.00;99256.00;4938246;28;20047;-67
2024/02/12 04:46:58;;;;;;;9.63;2.50;;;;;;;12.14;100.00;99269.72;4990141;28;20453;-67
2024/02/12 04:49:24;;;;;;;9.15;2.10;;;;;;;12.12;100.00;99258.50;4989578;28;20104;-67
2024/02/12 04:51:51;;;;;;;10.93;2.85;;;;;;;11.96;100.00;99230.72;4989112;28;20808;-69
2024/02/12 04:54:16;;;;;;;16.00;2.78;;;;;;;12.17;100.00;99249.94;4987763;28;20038;-67
2024/02/12 04:56:42;;;;;;;15.32;3.15;;;;;;;12.20;100.00;99260.28;4981285;28;20027;-68
2024/02/12 04:59:16;;;;;;;9.88;3.15;;;;;;;12.18;100.00;99246.50;5014188;28;20026;-66
2024/02/12 05:01:41;;;;;;;11.40;3.03;;;;;;;11.79;100.00;99165.88;4990740;28;20133;-69
2024/02/12 05:04:07;;;;;;;12.98;3.30;;;;;;;12.23;100.00;99232.72;4994148;28;20418;-68
2024/02/12 05:06:33;;;;;;;15.40;3.40;;;;;;;12.23;100.00;99230.16;4992932;28;20445;-69
2024/02/12 05:09:05;;;;;;;16.13;3.05;;;;;;;12.28;100.00;99225.88;4993082;28;20115;-68
2024/02/12 05:11:33;;;;;;;17.73;3.55;;;;;;;12.24;100.00;99215.50;4993418;28;20124;-67
2024/02/12 05:13:59;;;;;;;15.27;3.40;;;;;;;12.31;100.00;99222.44;4985530;28;20030;-67
2024/02/12 05:16:32;;;;;;;14.20;2.70;;;;;;;12.31;100.00;99217.28;4993872;28;20855;-72
2024/02/12 05:24:36;;;;;;;22.35;5.95;;;;;;;12.29;100.00;99195.72;4993562;28;20040;-67
2024/02/12 05:27:02;;;;;;;14.23;2.97;;;;;;;12.21;100.00;99212.88;4982466;28;20450;-67
2024/02/12 05:29:27;;;;;;;9.27;3.13;;;;;;;12.22;100.00;99214.63;4993199;28;20041;-66
2024/02/12 05:31:54;;;;;;;14.20;3.25;;;;;;;12.26;100.00;99224.13;4987737;28;20069;-66
2024/02/12 05:34:21;;;;;;;10.45;2.65;;;;;;;12.27;100.00;99234.53;4993504;28;20474;-66
2024/02/12 05:36:51;;;;;;;13.48;2.92;;;;;;;12.20;100.00;99222.38;4986680;28;20027;-68
2024/02/12 05:39:19;;;;;;;15.82;4.20;;;;;;;12.37;100.00;99263.06;4994099;28;20022;-67
2024/02/12 05:41:48;;;;;;;17.77;4.05;;;;;;;12.35;100.00;99257.88;4993268;28;20117;-67
2024/02/12 05:44:14;;;;;;;11.80;3.08;;;;;;;12.32;100.00;99246.63;4993315;28;20069;-66
2024/02/12 05:46:39;;;;;;;21.02;4.32;;;;;;;12.10;100.00;99224.00;4994013;28;20037;-66
2024/02/12 05:49:09;;;;;;;25.02;5.50;;;;;;;12.38;100.00;99278.59;4993344;28;20030;-68
2024/02/12 05:51:36;;;;;;;18.27;5.05;;;;;;;12.35;100.00;99270.81;4992777;28;20026;-66
2024/02/12 05:54:02;;;;;;;21.20;4.30;;;;;;;12.37;100.00;99260.47;4993026;28;20466;-67
2024/02/12 05:56:28;;;;;;;16.75;4.13;;;;;;;12.29;100.00;99263.00;4992796;28;20084;-67
2024/02/12 05:58:54;;;;;;;15.18;3.28;;;;;;;12.14;100.00;99259.38;4992910;28;20498;-67
2024/02/12 06:01:19;;;;;;;9.13;2.08;;;;;;;11.62;100.00;99209.59;4983455;28;20050;-66
2024/02/12 06:03:45;;;;;;;15.02;2.20;;;;;;;11.80;100.00;99258.97;4992928;28;20417;-67
2024/02/12 06:06:12;;;;;;;10.13;1.55;;;;;;;11.77;100.00;99266.66;4992945;28;20375;-65
2024/02/12 06:08:38;;;;;;;19.10;5.45;;;;;;;11.19;100.00;99185.78;4992830;28;20030;-67
2024/02/12 06:11:04;;;;;;;11.27;4.40;;;;;;;11.56;100.00;99263.81;4992697;28;20039;-67
2024/02/12 06:13:30;;;;;;;19.90;9.13;;;;;;;11.56;100.00;99256.91;4992478;28;20037;-67
2024/02/12 06:15:55;;;;;;;7.97;2.80;;;;;;;11.54;100.00;99260.31;4993161;28;20042;-65
2024/02/12 06:18:21;;;;;;;16.70;2.65;;;;;;;11.56;100.00;99264.66;4992831;28;20054;-67
2024/02/12 06:20:48;;;;;;;6.60;1.63;;;;;;;11.46;100.00;99261.13;4990233;28;20137;-66
2024/02/12 06:23:14;;;;;;;8.73;2.40;;;;;;;11.14;100.00;99261.50;4987481;28;20033;-67
2024/02/12 06:25:40;;;;;;;13.07;2.72;;;;;;;11.15;100.00;99273.59;4992747;28;20723;-66
2024/02/12 06:28:07;;;;;;;10.43;3.15;;;;;;;11.03;100.00;99270.81;4990696;28;20034;-68
2024/02/12 06:30:32;;;;;;;9.45;2.38;;;;;;;10.99;100.00;99261.25;4992831;28;20483;-67
2024/02/12 06:32:58;;;;;;;8.43;2.10;;;;;;;10.98;100.00;99228.56;4991741;28;20036;-66
2024/02/12 06:35:25;;;;;;;7.18;1.83;;;;;;;10.99;100.00;99222.50;4992074;28;20033;-66
2024/02/12 06:37:50;;;;;;;8.48;1.95;;;;;;;10.98;100.00;99229.41;4990543;28;20030;-65
2024/02/12 06:40:16;;;;;;;11.00;2.33;;;;;;;10.97;100.00;99226.81;4991623;28;20026;-67
2024/02/12 06:42:44;;;;;;;10.32;2.38;;;;;;;10.94;100.00;99235.38;4991154;28;20478;-65
2024/02/12 06:45:10;;;;;;;8.95;1.95;;;;;;;10.96;100.00;99235.41;4992793;28;20058;-68
2024/02/12 06:47:35;;;;;;;10.73;2.17;;;;;;;10.82;100.00;99217.97;4988349;28;20059;-66
2024/02/12 06:50:01;;;;;;;9.20;1.63;;;;;;;10.87;100.00;99235.28;4990853;28;20038;-66
2024/02/12 06:52:26;;;;;;;10.13;2.13;;;;;;;10.84;100.00;99247.28;4991305;28;20029;-65
2024/02/12 06:54:52;;;;;;;8.15;1.67;;;;;;;10.88;100.00;99244.72;4998391;28;20121;-65
2024/02/12 06:57:17;;;;;;;9.00;1.98;;;;;;;10.82;100.00;99235.19;4991919;28;20034;-68
2024/02/12 06:59:43;;;;;;;6.18;1.65;;;;;;;10.58;100.00;99210.72;4992181;28;20027;-67
2024/02/12 07:02:09;;;;;;;4.45;1.25;;;;;;;11.04;100.00;99277.72;4991364;28;20045;-65
2024/02/12 07:04:35;;;;;;;4.20;1.63;;;;;;;11.08;100.00;99278.59;4991540;28;20042;-65
2024/02/12 07:07:01;;;;;;;9.40;1.50;;;;;;;10.99;100.00;99266.41;4991314;28;20035;-69
2024/02/12 07:09:26;;;;;;;4.53;1.10;;;;;;;11.08;100.00;99297.56;4991526;28;20030;-65
2024/02/12 07:11:52;;;;;;;3.40;0.95;;;;;;;11.08;100.00;99305.31;4991135;28;20030;-66
2024/02/12 07:14:18;;;;;;;4.70;0.90;;;;;;;11.09;100.00;99309.66;4991680;28;20528;-65
2024/02/12 07:16:44;;;;;;;3.10;1.20;;;;;;;11.06;100.00;99331.97;5016309;28;20054;-65
2024/02/12 07:19:10;;;;;;;5.22;1.10;;;;;;;11.10;100.00;99352.72;4990831;28;20032;-67
2024/02/12 07:21:35;;;;;;;4.43;1.10;;;;;;;11.08;100.00;99364.72;4991073;28;20407;-69
2024/02/12 07:24:01;;;;;;;3.63;0.88;;;;;;;10.95;100.00;99352.44;4990684;28;20122;-66
2024/02/12 07:26:27;;;;;;;5.55;1.58;;;;;;;10.98;100.00;99347.34;4990198;28;20552;-66
2024/02/12 07:28:52;;;;;;;15.85;8.40;;;;;;;10.95;100.00;99362.78;4990675;28;20034;-66
2024/02/12 07:31:18;;;;;;;101.90;63.45;;;;;;;10.56;100.00;99278.63;4990674;28;20120;-67
2024/02/12 07:33:46;;;;;;;32.65;16.85;;;;;;;10.67;100.00;99332.16;4990409;28;20102;-67
2024/02/12 07:36:12;;;;;;;73.60;39.03;;;;;;;10.58;100.00;99310.47;4991528;28;20037;-66
2024/02/12 07:38:38;;;;;;;13.18;7.35;;;;;;;10.48;100.00;99273.31;4990615;28;20478;-67
2024/02/12 07:41:04;;;;;;;19.65;15.75;;;;;;;10.51;100.00;99279.41;4990559;28;20034;-65
2024/02/12 07:43:30;;;;;;;3.92;2.38;;;;;;;10.52;100.00;99260.50;4990478;28;20049;-66
2024/02/12 07:45:56;;;;;;;2.67;2.20;;;;;;;10.65;100.00;99258.13;4991704;28;20045;-65
2024/02/12 07:48:22;;;;;;;2.00;0.90;;;;;;;10.61;100.00;99274.41;4990284;28;20038;-69
2024/02/12 07:50:51;;;;;;;0.70;0.50;;;;;;;10.61;100.00;99264.09;4990326;28;20039;-67
2024/02/12 07:53:24;;;;;;;0.82;0.60;;;;;;;10.57;100.00;99264.88;4990113;28;20509;-69
2024/02/12 07:55:51;;;;;;;1.17;0.60;;;;;;;10.49;100.00;99275.06;4980930;28;20413;-66
2024/02/12 07:58:17;;;;;;;1.50;0.40;;;;;;;10.35;100.00;99254.13;4990433;28;20030;-67
2024/02/12 08:00:43;;;;;;;0.52;0.40;;;;;;;10.00;100.00;99221.69;4991045;28;20394;-66
2024/02/12 08:03:09;;;;;;;1.33;0.40;;;;;;;10.32;100.00;99272.16;4990792;28;20054;-67
2024/02/12 08:05:37;;;;;;;0.57;0.57;;;;;;;10.31;100.00;99257.50;4990292;28;20132;-67
2024/02/12 08:08:06;;;;;;;1.65;0.55;;;;;;;10.37;100.00;99257.66;4990536;28;20057;-66
2024/02/12 08:10:31;;;;;;;0.63;0.63;;;;;;;10.37;100.00;99260.22;4990203;28;20442;-66
2024/02/12 08:12:57;;;;;;;1.17;0.47;;;;;;;10.28;100.00;99247.13;4989789;28;20117;-69
2024/02/12 08:15:22;;;;;;;1.13;0.75;;;;;;;10.24;100.00;99260.81;4990895;28;20081;-65
2024/02/12 08:17:48;;;;;;;0.40;0.40;;;;;;;10.29;100.00;99277.25;4989794;28;20125;-65
2024/02/12 08:20:16;;;;;;;2.83;0.70;;;;;;;10.08;100.00;99263.09;4990071;28;20128;-68
2024/02/12 08:22:42;;;;;;;2.05;0.60;;;;;;;10.18;100.00;99290.81;4990001;28;20586;-67
2024/02/12 08:25:10;;;;;;;0.57;0.55;;;;;;;10.15;100.00;99284.72;4990309;28;20043;-71
2024/02/12 08:27:35;;;;;;;0.65;0.50;;;;;;;10.16;100.00;99281.31;4990538;28;20026;-66
2024/02/12 08:30:02;;;;;;;1.83;0.63;;;;;;;10.15;100.00;99293.31;4990269;28;20482;-68
2024/02/12 08:32:28;;;;;;;0.40;0.40;;;;;;;10.18;100.00;99274.44;4990118;28;20038;-67
2024/02/12 08:34:54;;;;;;;0.75;0.40;;;;;;;10.28;100.00;99296.13;4990644;28;20088;-66
2024/02/12 08:37:19;;;;;;;0.32;0.30;;;;;;;10.33;100.00;99291.91;4974726;28;20600;-65
2024/02/12 08:39:45;;;;;;;2.30;0.65;;;;;;;10.38;100.00;99290.34;4994501;28;20065;-66
2024/02/12 08:42:11;;;;;;;1.95;0.98;;;;;;;10.45;100.00;99299.94;4994053;28;20029;-66
2024/02/12 08:44:36;;;;;;;1.27;0.68;;;;;;;10.51;100.00;99304.34;4994375;28;20034;-68
2024/02/12 08:47:02;;;;;;;2.60;0.65;;;;;;;10.58;100.00;99305.31;4994206;28;20121;-67
2024/02/12 08:49:27;;;;;;;1.92;0.60;;;;;;;10.33;100.00;99258.38;4993792;28;20112;-65
2024/02/12 08:51:53;;;;;;;1.40;0.70;;;;;;;10.73;100.00;99327.94;4993835;28;20038;-68
2024/02/12 08:54:22;;;;;;;3.95;0.93;;;;;;;10.74;100.00;99320.25;4993755;28;20548;-65
2024/02/12 08:56:48;;;;;;;0.93;0.53;;;;;;;10.11;100.00;99201.25;4993763;28;20041;-67
2024/02/12 08:59:15;;;;;;;1.77;0.57;;;;;;;10.96;100.00;99330.94;4993840;28;20038;-67
2024/02/12 09:01:42;;;;;;;0.30;0.30;;;;;;;10.89;100.00;99316.19;4993609;28;20042;-67
2024/02/12 09:04:08;;;;;;;0.82;0.50;;;;;;;10.55;100.00;99244.19;4993754;28;20053;-68
2024/02/12 09:06:34;;;;;;;1.23;0.60;;;;;;;11.02;100.00;99336.22;4989543;28;20482;-68
2024/02/12 09:09:00;;;;;;;1.42;0.38;;;;;;;10.97;100.00;99314.63;4993536;28;20034;-67
2024/02/12 09:11:26;;;;;;;1.15;0.60;;;;;;;11.11;100.00;99331.19;4993843;28;20026;-67
2024/02/12 09:13:52;;;;;;;0.55;0.50;;;;;;;11.12;100.00;99320.00;4993352;28;20110;-68
2024/02/12 09:16:19;;;;;;;2.03;0.73;;;;;;;11.13;100.00;99337.25;4993277;28;20117;-67
2024/02/12 09:18:46;;;;;;;2.13;0.55;;;;;;;11.12;100.00;99334.66;4993125;28;20049;-69
2024/02/12 09:21:13;;;;;;;2.30;0.60;;;;;;;11.03;100.00;99319.88;4980867;28;20046;-67
2024/02/12 09:23:38;;;;;;;2.22;0.60;;;;;;;11.12;100.00;99357.91;4976765;28;20038;-68
2024/02/12 09:26:07;;;;;;;0.30;0.30;;;;;;;11.15;100.00;99334.69;4982469;28;20039;-67
2024/02/12 09:28:33;;;;;;;2.38;0.50;;;;;;;11.12;100.00;99325.19;4980654;28;20046;-66
2024/02/12 09:31:00;;;;;;;1.15;0.80;;;;;;;10.94;100.00;99307.69;4984715;28;20641;-66
2024/02/12 09:33:30;;;;;;;1.60;0.50;;;;;;;11.02;100.00;99338.78;4983162;28;20152;-66
2024/02/12 09:35:57;;;;;;;1.17;0.52;;;;;;;10.95;100.00;99324.03;4977091;28;20509;-68
2024/02/12 09:38:22;;;;;;;1.95;0.70;;;;;;;11.07;100.00;99329.41;4980211;28;20614;-67
2024/02/12 09:40:49;;;;;;;2.20;0.73;;;;;;;11.11;100.00;99328.59;4986839;28;20133;-67
2024/02/12 09:43:15;;;;;;;0.93;0.40;;;;;;;11.10;100.00;99305.34;4979176;28;20427;-68
2024/02/12 09:45:44;;;;;;;0.75;0.40;;;;;;;11.24;100.00;99308.13;4983507;28;20134;-66
2024/02/12 09:48:14;;;;;;;3.53;0.77;;;;;;;11.40;100.00;99293.72;4974314;28;20553;-67
2024/02/12 09:50:44;;;;;;;3.22;1.48;;;;;;;11.54;100.00;99302.56;4982270;28;20046;-68
2024/02/12 09:53:19;;;;;;;1.17;0.68;;;;;;;11.52;100.00;99272.38;4992250;28;20116;-67
2024/02/12 09:55:48;;;;;;;2.15;0.63;;;;;;;11.73;100.00;99303.69;4989716;28;20049;-67
2024/02/12 09:58:18;;;;;;;4.55;1.10;;;;;;;11.61;100.00;99288.00;4991501;28;20403;-68
2024/02/12 10:00:45;;;;;;;1.85;0.60;;;;;;;11.89;100.00;99302.16;4993393;28;20037;-68
2024/02/12 10:03:14;;;;;;;0.38;0.38;;;;;;;11.44;100.00;99231.78;4981845;28;20466;-66
2024/02/12 10:05:43;;;;;;;1.52;0.52;;;;;;;11.84;100.00;99300.34;4992703;28;20026;-69
2024/02/12 10:08:25;;;;;;;3.05;0.70;;;;;;;11.96;100.00;99295.38;4992659;28;20050;-67
2024/02/12 10:10:54;;;;;;;1.92;0.60;;;;;;;11.94;100.00;99290.16;4992275;28;20434;-66
2024/02/12 10:13:23;;;;;;;2.13;0.85;;;;;;;12.06;100.00;99252.38;4992340;28;20045;-66
2024/02/12 10:15:50;;;;;;;1.77;0.53;;;;;;;12.15;100.00;99304.25;4991805;28;20446;-67
2024/02/12 10:18:16;;;;;;;2.35;0.60;;;;;;;12.05;100.00;99300.69;4992551;28;20478;-67
2024/02/12 10:20:45;;;;;;;3.13;0.85;;;;;;;11.96;100.00;99308.31;4992022;28;20065;-68
2024/02/12 10:23:15;;;;;;;3.83;0.60;;;;;;;11.75;100.00;99249.41;4992168;28;20033;-67
2024/02/12 10:25:45;;;;;;;1.92;0.85;;;;;;;12.16;100.00;99315.44;4992055;28;20062;-67
2024/02/12 10:28:13;;;;;;;3.30;0.60;;;;;;;11.96;100.00;99244.53;4990894;28;20049;-68
2024/02/12 10:30:40;;;;;;;3.67;0.63;;;;;;;12.14;100.00;99274.91;4979408;28;20042;-67
2024/02/12 10:33:07;;;;;;;5.05;1.00;;;;;;;12.22;100.00;99293.09;4992179;28;20038;-68
2024/02/12 10:35:38;;;;;;;0.63;0.50;;;;;;;12.36;100.00;99300.16;4991364;28;20057;-70
2024/02/12 10:38:08;;;;;;;2.13;0.50;;;;;;;12.12;100.00;99214.53;4991980;28;20414;-67
2024/02/12 10:40:44;;;;;;;5.30;0.77;;;;;;;12.41;100.00;99268.28;4980342;28;20019;-68
2024/02/12 10:43:14;;;;;;;3.55;0.63;;;;;;;12.28;100.00;99287.97;4991495;28;20542;-67
2024/02/12 10:45:40;;;;;;;2.15;0.65;;;;;;;12.21;100.00;99282.72;4992145;28;20505;-69
2024/02/12 10:48:08;;;;;;;3.28;0.57;;;;;;;12.27;100.00;99291.44;4991533;28;20475;-68
2024/02/12 10:50:35;;;;;;;2.75;0.63;;;;;;;12.39;100.00;99297.59;4991836;28;20118;-69
2024/02/12 10:53:04;;;;;;;5.47;0.88;;;;;;;12.41;100.00;99296.78;4991385;28;20434;-66
2024/02/12 10:55:30;;;;;;;3.80;0.85;;;;;;;12.01;100.00;99234.22;4991497;28;20080;-67
2024/02/12 10:57:56;;;;;;;3.78;1.98;;;;;;;12.40;100.00;99302.78;4991438;28;20453;-66
2024/02/12 11:00:23;;;;;;;2.28;0.80;;;;;;;12.37;100.00;99307.06;4988836;28;20030;-67
2024/02/12 11:02:50;;;;;;;6.97;0.85;;;;;;;12.29;100.00;99304.41;4990621;28;20030;-68
2024/02/12 11:05:20;;;;;;;4.72;0.93;;;;;;;12.33;100.00;99302.72;4992260;28;20453;-66
2024/02/12 11:07:46;;;;;;;2.63;0.68;;;;;;;12.21;100.00;99306.03;4973023;28;20502;-67
2024/02/12 11:10:18;;;;;;;7.55;1.00;;;;;;;12.29;100.00;99300.06;4989446;28;20045;-68
2024/02/12 11:12:46;;;;;;;6.80;1.20;;;;;;;12.27;100.00;99293.16;4979249;28;20112;-66
2024/02/12 11:15:21;;;;;;;4.95;1.48;;;;;;;12.29;100.00;99286.28;4991140;28;20462;-67
2024/02/12 11:17:47;;;;;;;1.75;0.80;;;;;;;12.23;100.00;99261.19;4988407;28;20556;-66
2024/02/12 11:20:21;;;;;;;5.88;1.27;;;;;;;12.38;100.00;99268.25;4991771;28;20050;-67
2024/02/12 11:22:48;;;;;;;1.95;0.70;;;;;;;12.23;100.00;99247.41;4984057;28;20399;-67
2024/02/12 11:25:17;;;;;;;3.95;0.90;;;;;;;12.40;100.00;99271.72;4991022;28;20085;-67
2024/02/12 11:27:52;;;;;;;5.97;1.08;;;;;;;12.51;100.00;99269.25;4991497;28;20046;-68
2024/02/12 11:30:18;;;;;;;4.78;0.80;;;;;;;12.50;100.00;99267.53;4986319;28;20034;-68
2024/02/12 11:32:48;;;;;;;6.30;1.17;;;;;;;12.52;100.00;99265.78;4966902;28;20080;-69
2024/02/12 11:35:15;;;;;;;3.97;1.05;;;;;;;12.46;100.00;99258.84;4991485;28;20601;-70
2024/02/12 11:37:56;;;;;;;6.25;1.33;;;;;;;12.38;100.00;99260.47;4991918;28;20121;-69
2024/02/12 11:40:22;;;;;;;1.85;0.45;;;;;;;12.31;100.00;99248.34;4973086;28;20041;-69
2024/02/12 11:42:50;;;;;;;5.35;1.00;;;;;;;12.31;100.00;99250.91;4989661;28;20038;-68
2024/02/12 11:45:22;;;;;;;4.53;1.20;;;;;;;12.22;100.00;99235.31;5011283;28;20023;-68